Time;durP1;ratioP1;P1;durP2;ratioP2;P2;SDS_P1;SDS_P2;PMS_P1;PMS_P2;Temp;Humidity;BMP_temperature;BMP_pressure;BME280_temperature;BME280_humidity;BME280_pressure;Samples;Min_cycle;Max_cycle;Signal;HPM_P1;HPM_P2
2024/03/21 00:00:13;;;;;;;24.65;11.65;;;;;;;;;;5115777;28;20067;-65
2024/03/21 00:02:39;;;;;;;25.50;11.90;;;;;;;;;;5112310;28;20164;-63
2024/03/21 00:05:06;;;;;;;18.48;11.02;;;;;;;;;;5114013;28;20399;-63
2024/03/21 00:07:32;;;;;;;24.52;11.05;;;;;;;;;;5112481;28;20024;-62
2024/03/21 00:09:57;;;;;;;22.20;10.88;;;;;;;;;;5115778;28;20088;-62
2024/03/21 00:12:24;;;;;;;17.15;11.02;;;;;;;;;;5111665;28;20032;-63
2024/03/21 00:14:49;;;;;;;24.58;10.68;;;;;;;;;;5095375;28;20028;-63
2024/03/21 00:17:15;;;;;;;22.67;10.90;;;;;;;;;;5095145;28;20020;-64
2024/03/21 00:19:40;;;;;;;20.73;11.30;;;;;;;;;;5095433;28;20128;-63
2024/03/21 00:22:05;;;;;;;25.70;11.45;;;;;;;;;;5095439;28;20136;-64
2024/03/21 00:24:31;;;;;;;22.08;11.60;;;;;;;;;;5098009;28;20462;-62
2024/03/21 00:26:56;;;;;;;20.92;11.15;;;;;;;;;;5095111;28;20052;-63
2024/03/21 00:29:24;;;;;;;25.40;11.35;;;;;;;;;;5095186;28;20073;-63
2024/03/21 00:31:52;;;;;;;22.85;11.88;;;;;;;;;;5094894;28;20085;-62
2024/03/21 00:34:18;;;;;;;23.27;11.13;;;;;;;;;;5095029;28;20035;-63
2024/03/21 00:36:43;;;;;;;21.17;11.82;;;;;;;;;;5094780;28;20095;-64
2024/03/21 00:39:14;;;;;;;25.42;12.27;;;;;;;;;;5097540;28;20020;-64
2024/03/21 00:41:39;;;;;;;24.13;12.38;;;;;;;;;;5114808;28;20066;-64
2024/03/21 00:44:07;;;;;;;25.23;10.85;;;;;;;;;;5112946;28;20441;-63
2024/03/21 00:46:33;;;;;;;25.38;11.63;;;;;;;;;;5115228;28;20388;-62
2024/03/21 00:48:58;;;;;;;22.63;12.35;;;;;;;;;;5114737;28;20023;-63
2024/03/21 00:51:24;;;;;;;24.08;12.57;;;;;;;;;;5114761;28;20064;-62
2024/03/21 00:53:49;;;;;;;24.50;11.93;;;;;;;;;;5114812;28;20370;-63
2024/03/21 00:56:14;;;;;;;27.20;11.68;;;;;;;;;;5115165;28;20427;-63
2024/03/21 00:58:40;;;;;;;21.05;11.50;;;;;;;;;;5112729;28;20152;-64
2024/03/21 01:01:05;;;;;;;18.75;11.07;;;;;;;;;;5114281;28;20035;-63
2024/03/21 01:03:31;;;;;;;18.48;11.18;;;;;;;;;;5114384;28;20119;-64
2024/03/21 01:05:56;;;;;;;29.95;12.05;;;;;;;;;;5114846;28;20020;-63
2024/03/21 01:08:22;;;;;;;30.77;11.77;;;;;;;;;;5114932;27;20023;-63
2024/03/21 01:10:49;;;;;;;23.33;11.70;;;;;;;;;;5113219;28;20028;-63
2024/03/21 01:13:14;;;;;;;25.80;12.45;;;;;;;;;;5114137;28;20028;-63
2024/03/21 01:15:40;;;;;;;22.13;12.35;;;;;;;;;;5097858;28;20028;-63
2024/03/21 01:18:06;;;;;;;22.65;11.73;;;;;;;;;;5094047;28;20039;-64
2024/03/21 01:20:32;;;;;;;21.58;11.40;;;;;;;;;;5112820;28;20024;-62
2024/03/21 01:22:59;;;;;;;22.30;12.60;;;;;;;;;;5114104;28;20053;-63
2024/03/21 01:25:25;;;;;;;19.08;11.40;;;;;;;;;;5113491;28;20019;-61
2024/03/21 01:27:50;;;;;;;22.42;11.32;;;;;;;;;;5114289;28;20098;-63
2024/03/21 01:30:16;;;;;;;23.23;11.75;;;;;;;;;;5113682;28;20047;-64
2024/03/21 01:32:41;;;;;;;22.02;12.52;;;;;;;;;;5113643;28;20027;-63
2024/03/21 01:35:07;;;;;;;21.83;12.07;;;;;;;;;;5113497;28;20023;-63
2024/03/21 01:37:32;;;;;;;19.90;11.63;;;;;;;;;;5107156;28;20109;-62
2024/03/21 01:39:58;;;;;;;25.02;12.32;;;;;;;;;;5092603;28;20035;-63
2024/03/21 01:42:23;;;;;;;25.13;12.98;;;;;;;;;;5094459;28;20027;-64
2024/03/21 01:44:59;;;;;;;23.52;12.50;;;;;;;;;;5093314;28;20028;-64
2024/03/21 01:47:24;;;;;;;23.33;11.82;;;;;;;;;;5093475;28;20477;-63
2024/03/21 01:49:50;;;;;;;27.38;12.98;;;;;;;;;;5092917;28;20024;-65
2024/03/21 01:52:16;;;;;;;22.80;12.02;;;;;;;;;;5093024;28;20048;-64
2024/03/21 01:54:42;;;;;;;24.20;12.38;;;;;;;;;;5092804;28;20471;-64
2024/03/21 01:57:08;;;;;;;25.10;12.43;;;;;;;;;;5096062;28;20103;-65
2024/03/21 01:59:34;;;;;;;24.98;13.40;;;;;;;;;;5092822;28;20028;-64
2024/03/21 02:02:00;;;;;;;23.73;12.52;;;;;;;;;;5092961;28;20027;-63
2024/03/21 02:04:25;;;;;;;26.08;13.07;;;;;;;;;;5093323;28;20028;-63
2024/03/21 02:06:52;;;;;;;18.65;12.00;;;;;;;;;;5092352;28;20474;-63
2024/03/21 02:09:23;;;;;;;24.48;13.05;;;;;;;;;;5091929;28;20035;-64
2024/03/21 02:11:48;;;;;;;26.90;13.32;;;;;;;;;;5091691;28;20020;-63
2024/03/21 02:14:14;;;;;;;27.05;13.38;;;;;;;;;;5109149;28;20434;-63
2024/03/21 02:16:39;;;;;;;26.08;14.02;;;;;;;;;;5113379;28;20457;-63
2024/03/21 02:19:05;;;;;;;22.95;13.30;;;;;;;;;;5097425;28;20062;-62
2024/03/21 02:24:14;;;;;;;27.95;13.90;;;;;;;;;;5092876;28;20024;-63
2024/03/21 02:26:40;;;;;;;29.08;14.88;;;;;;;;;;5092519;28;20350;-63
2024/03/21 02:29:05;;;;;;;27.40;13.90;;;;;;;;;;5092348;28;20028;-64
2024/03/21 02:31:31;;;;;;;27.90;13.55;;;;;;;;;;5092937;28;20027;-64
2024/03/21 02:33:56;;;;;;;23.85;13.30;;;;;;;;;;5091870;28;20498;-62
2024/03/21 02:36:21;;;;;;;24.67;13.52;;;;;;;;;;5092357;28;20040;-64
2024/03/21 02:38:47;;;;;;;23.50;13.27;;;;;;;;;;5092377;28;20062;-65
2024/03/21 02:41:12;;;;;;;29.08;13.88;;;;;;;;;;5093811;28;20024;-64
2024/03/21 02:43:38;;;;;;;23.02;13.25;;;;;;;;;;5092669;28;20027;-63
2024/03/21 02:46:04;;;;;;;25.45;13.20;;;;;;;;;;5092314;28;20445;-63
2024/03/21 02:48:29;;;;;;;28.83;13.88;;;;;;;;;;5091376;28;20031;-61
2024/03/21 02:50:55;;;;;;;27.08;13.10;;;;;;;;;;5092872;28;20024;-64
2024/03/21 02:53:20;;;;;;;27.13;13.10;;;;;;;;;;5092163;28;20087;-63
2024/03/21 02:55:46;;;;;;;25.52;13.82;;;;;;;;;;5101695;28;20096;-64
2024/03/21 02:58:11;;;;;;;26.80;13.13;;;;;;;;;;5110744;28;20015;-63
2024/03/21 03:00:37;;;;;;;29.63;13.65;;;;;;;;;;5111851;28;20127;-63
2024/03/21 03:03:02;;;;;;;22.60;13.05;;;;;;;;;;5110983;28;20023;-63
2024/03/21 03:05:28;;;;;;;22.15;12.82;;;;;;;;;;5112565;28;20035;-63
2024/03/21 03:07:53;;;;;;;26.40;14.20;;;;;;;;;;5112559;28;20016;-65
2024/03/21 03:10:18;;;;;;;25.52;13.07;;;;;;;;;;5111766;28;20015;-63
2024/03/21 03:12:44;;;;;;;24.40;13.85;;;;;;;;;;5112664;28;20169;-63
2024/03/21 03:15:12;;;;;;;25.75;13.88;;;;;;;;;;5112305;28;20038;-66
2024/03/21 03:17:37;;;;;;;26.27;13.55;;;;;;;;;;5108333;28;20038;-63
2024/03/21 03:20:03;;;;;;;22.25;13.13;;;;;;;;;;5092376;28;20020;-64
2024/03/21 03:22:30;;;;;;;21.38;13.38;;;;;;;;;;5092168;28;20110;-64
2024/03/21 03:24:56;;;;;;;28.75;14.25;;;;;;;;;;5092225;28;20035;-63
2024/03/21 03:27:21;;;;;;;26.38;13.68;;;;;;;;;;5092871;28;20115;-64
2024/03/21 03:29:47;;;;;;;25.58;13.63;;;;;;;;;;5091695;28;20028;-65
2024/03/21 03:32:13;;;;;;;21.98;13.25;;;;;;;;;;5092059;28;20032;-63
2024/03/21 03:37:23;;;;;;;27.02;13.23;;;;;;;;;;5091023;28;20367;-63
2024/03/21 03:39:48;;;;;;;21.60;14.27;;;;;;;;;;5091828;28;20071;-64
2024/03/21 03:42:14;;;;;;;28.10;14.38;;;;;;;;;;5091750;28;20035;-64
2024/03/21 03:44:39;;;;;;;21.92;13.73;;;;;;;;;;5091878;28;20500;-64
2024/03/21 03:47:04;;;;;;;26.95;13.80;;;;;;;;;;5111496;28;20019;-63
2024/03/21 03:49:30;;;;;;;28.15;14.18;;;;;;;;;;5115628;28;20062;-64
2024/03/21 03:51:55;;;;;;;27.20;14.13;;;;;;;;;;5115530;28;20103;-65
2024/03/21 03:54:21;;;;;;;32.88;14.05;;;;;;;;;;5116202;28;20047;-65
2024/03/21 03:56:47;;;;;;;25.80;13.75;;;;;;;;;;5115621;28;20115;-64
2024/03/21 03:59:12;;;;;;;29.17;14.80;;;;;;;;;;5115817;27;20103;-64
2024/03/21 04:01:37;;;;;;;28.35;14.70;;;;;;;;;;5098372;28;20430;-65
2024/03/21 04:04:03;;;;;;;29.58;15.02;;;;;;;;;;5095169;28;20101;-66
2024/03/21 04:06:28;;;;;;;21.95;14.23;;;;;;;;;;5109526;28;20095;-66
2024/03/21 04:08:53;;;;;;;28.70;14.10;;;;;;;;;;5115828;28;20407;-64
2024/03/21 04:11:19;;;;;;;26.08;15.98;;;;;;;;;;5115520;27;20026;-64
2024/03/21 04:13:45;;;;;;;29.95;15.90;;;;;;;;;;5114396;28;20110;-63
2024/03/21 04:16:14;;;;;;;34.33;17.30;;;;;;;;;;5115352;28;20421;-66
2024/03/21 04:18:40;;;;;;;25.50;16.23;;;;;;;;;;5115595;28;20023;-65
2024/03/21 04:21:05;;;;;;;33.03;16.70;;;;;;;;;;5101101;28;20020;-63
2024/03/21 04:23:31;;;;;;;32.15;15.77;;;;;;;;;;5094843;28;20062;-64
2024/03/21 04:25:56;;;;;;;32.83;16.83;;;;;;;;;;5093986;28;20040;-66
2024/03/21 04:28:21;;;;;;;30.65;16.58;;;;;;;;;;5095959;28;20020;-64
2024/03/21 04:30:47;;;;;;;28.55;17.27;;;;;;;;;;5094764;28;20708;-65
2024/03/21 04:33:13;;;;;;;31.02;19.63;;;;;;;;;;5094346;28;20038;-66
2024/03/21 04:35:39;;;;;;;28.48;20.05;;;;;;;;;;5094058;28;20024;-66
2024/03/21 04:38:06;;;;;;;41.67;30.08;;;;;;;;;;5095241;28;20031;-66
2024/03/21 04:40:32;;;;;;;1999.90;999.90;;;;;;;;;;5094875;28;20023;-64
2024/03/21 04:42:57;;;;;;;1999.90;999.90;;;;;;;;;;5104407;28;20350;-66
2024/03/21 04:45:23;;;;;;;1999.90;999.90;;;;;;;;;;5113080;27;20050;-66
2024/03/21 04:47:48;;;;;;;1999.90;999.90;;;;;;;;;;5107409;28;20028;-64
2024/03/21 04:50:14;;;;;;;1999.90;999.90;;;;;;;;;;5094386;28;20028;-63
2024/03/21 04:52:39;;;;;;;1999.90;999.90;;;;;;;;;;5093766;28;20056;-64
2024/03/21 04:55:05;;;;;;;37.05;33.35;;;;;;;;;;5094421;28;20020;-65
2024/03/21 04:57:30;;;;;;;28.27;24.13;;;;;;;;;;5094416;28;20354;-67
2024/03/21 04:59:56;;;;;;;30.23;21.70;;;;;;;;;;5092974;28;20031;-65
2024/03/21 05:02:21;;;;;;;32.03;24.48;;;;;;;;;;5095180;28;20012;-69
2024/03/21 05:04:47;;;;;;;25.52;19.70;;;;;;;;;;5094102;28;20026;-68
2024/03/21 05:07:12;;;;;;;29.00;21.35;;;;;;;;;;5094337;28;20073;-67
2024/03/21 05:09:37;;;;;;;29.55;19.17;;;;;;;;;;5095292;28;20020;-64
2024/03/21 05:12:03;;;;;;;30.85;17.60;;;;;;;;;;5111594;28;20042;-67
2024/03/21 05:14:33;;;;;;;28.40;16.50;;;;;;;;;;5114164;28;20492;-71
2024/03/21 05:16:59;;;;;;;29.40;16.63;;;;;;;;;;5114361;28;20028;-69
2024/03/21 05:19:24;;;;;;;28.35;15.50;;;;;;;;;;5114051;28;20023;-69
2024/03/21 05:21:50;;;;;;;25.50;16.55;;;;;;;;;;5113928;28;20029;-62
2024/03/21 05:24:15;;;;;;;26.98;17.00;;;;;;;;;;5113845;28;20019;-67
2024/03/21 05:26:41;;;;;;;24.60;16.35;;;;;;;;;;5111745;28;20374;-67
2024/03/21 05:29:06;;;;;;;29.02;16.95;;;;;;;;;;5114111;28;20024;-67
2024/03/21 05:31:31;;;;;;;30.70;15.88;;;;;;;;;;5113120;28;20020;-67
2024/03/21 05:33:58;;;;;;;25.58;16.20;;;;;;;;;;5112879;28;20088;-63
2024/03/21 05:36:24;;;;;;;22.63;15.13;;;;;;;;;;5104775;28;20020;-65
2024/03/21 05:38:49;;;;;;;26.83;16.15;;;;;;;;;;5093321;28;20043;-68
2024/03/21 05:41:15;;;;;;;26.90;16.27;;;;;;;;;;5093189;28;20035;-67
2024/03/21 05:43:41;;;;;;;26.10;16.60;;;;;;;;;;5093355;28;20173;-64
2024/03/21 05:46:06;;;;;;;26.92;16.85;;;;;;;;;;5092551;28;20020;-64
2024/03/21 05:48:32;;;;;;;33.50;16.60;;;;;;;;;;5096839;28;20024;-65
2024/03/21 05:50:58;;;;;;;27.02;16.38;;;;;;;;;;5093463;28;20024;-66
2024/03/21 05:53:23;;;;;;;30.83;17.08;;;;;;;;;;5092812;28;20477;-71
2024/03/21 05:56:04;;;;;;;28.95;17.00;;;;;;;;;;5093204;28;20030;-71
2024/03/21 05:58:30;;;;;;;27.15;15.90;;;;;;;;;;5093339;28;20042;-69
2024/03/21 06:03:40;;;;;;;24.23;16.27;;;;;;;;;;5093408;28;20024;-71
2024/03/21 06:06:05;;;;;;;32.30;16.65;;;;;;;;;;5093815;28;20047;-71
2024/03/21 06:08:30;;;;;;;32.00;17.63;;;;;;;;;;5092859;28;20072;-69
2024/03/21 06:10:56;;;;;;;29.67;16.90;;;;;;;;;;5091980;28;20016;-70
2024/03/21 06:13:21;;;;;;;29.20;17.20;;;;;;;;;;5091933;28;20365;-72
2024/03/21 06:15:47;;;;;;;29.90;16.15;;;;;;;;;;5092751;28;20077;-71
2024/03/21 06:18:13;;;;;;;26.45;17.00;;;;;;;;;;5092622;28;20350;-69
2024/03/21 06:20:39;;;;;;;28.30;17.50;;;;;;;;;;5094149;28;20020;-70
2024/03/21 06:23:04;;;;;;;26.40;16.83;;;;;;;;;;5093429;28;20407;-71
2024/03/21 06:25:30;;;;;;;25.58;17.38;;;;;;;;;;5092965;28;20020;-70
2024/03/21 06:27:55;;;;;;;27.83;17.17;;;;;;;;;;5092392;28;20031;-69
2024/03/21 06:30:20;;;;;;;34.03;18.65;;;;;;;;;;5092511;28;20023;-71
2024/03/21 06:32:46;;;;;;;29.63;17.30;;;;;;;;;;5093017;28;20028;-71
2024/03/21 06:35:11;;;;;;;30.30;18.00;;;;;;;;;;5093035;28;20244;-71
2024/03/21 06:37:37;;;;;;;34.88;17.98;;;;;;;;;;5092571;28;20027;-70
2024/03/21 06:40:04;;;;;;;33.78;17.70;;;;;;;;;;5092276;28;20350;-71
2024/03/21 06:42:31;;;;;;;28.05;18.63;;;;;;;;;;5092878;28;20031;-71
2024/03/21 06:44:56;;;;;;;27.25;19.80;;;;;;;;;;5092298;28;20020;-71
2024/03/21 06:47:22;;;;;;;38.53;17.60;;;;;;;;;;5093193;28;20346;-70
2024/03/21 06:49:47;;;;;;;30.90;19.20;;;;;;;;;;5092036;28;20387;-69
2024/03/21 06:52:13;;;;;;;33.00;19.02;;;;;;;;;;5093613;28;20040;-63
2024/03/21 06:54:40;;;;;;;33.90;19.95;;;;;;;;;;5092763;28;20032;-71
2024/03/21 06:57:05;;;;;;;30.92;20.13;;;;;;;;;;5110991;28;20469;-70
2024/03/21 06:59:31;;;;;;;31.30;19.03;;;;;;;;;;5112566;28;20020;-70
2024/03/21 07:01:57;;;;;;;29.37;18.27;;;;;;;;;;5112780;28;20578;-72
2024/03/21 07:04:22;;;;;;;34.88;19.73;;;;;;;;;;5112682;28;20255;-70
2024/03/21 07:06:48;;;;;;;29.75;19.58;;;;;;;;;;5112465;28;20087;-71
2024/03/21 07:09:13;;;;;;;28.27;18.60;;;;;;;;;;5112375;28;20028;-69
2024/03/21 07:11:38;;;;;;;31.37;19.00;;;;;;;;;;5112485;28;20410;-71
2024/03/21 07:14:05;;;;;;;33.15;19.17;;;;;;;;;;5112654;28;20036;-71
2024/03/21 07:16:31;;;;;;;34.17;18.45;;;;;;;;;;5111179;28;20059;-70
2024/03/21 07:18:56;;;;;;;33.72;19.23;;;;;;;;;;5092059;28;20063;-69
2024/03/21 07:21:22;;;;;;;25.42;18.60;;;;;;;;;;5093435;28;20024;-72
2024/03/21 07:23:47;;;;;;;27.93;18.67;;;;;;;;;;5094080;28;20186;-71
2024/03/21 07:26:12;;;;;;;29.00;19.42;;;;;;;;;;5096240;28;20310;-71
2024/03/21 07:28:38;;;;;;;35.40;20.20;;;;;;;;;;5094673;28;20035;-72
2024/03/21 07:31:03;;;;;;;31.33;19.37;;;;;;;;;;5096134;28;20233;-71
2024/03/21 07:33:29;;;;;;;28.13;18.88;;;;;;;;;;5095484;28;20379;-68
2024/03/21 07:35:55;;;;;;;31.70;18.50;;;;;;;;;;5116318;28;20039;-72
2024/03/21 07:38:20;;;;;;;31.38;18.20;;;;;;;;;;5114634;28;20251;-72
2024/03/21 07:40:59;;;;;;;24.98;17.35;;;;;;;;;;5116013;27;20501;-67
2024/03/21 07:43:25;;;;;;;25.63;16.67;;;;;;;;;;5115922;28;20027;-71
2024/03/21 07:45:50;;;;;;;24.02;16.13;;;;;;;;;;5114962;28;20080;-71
2024/03/21 07:48:16;;;;;;;20.23;15.60;;;;;;;;;;5115037;28;20019;-65
2024/03/21 07:50:41;;;;;;;24.45;17.42;;;;;;;;;;5116226;28;20027;-71
2024/03/21 07:53:07;;;;;;;23.40;17.50;;;;;;;;;;5118871;28;20128;-69
2024/03/21 07:55:33;;;;;;;25.08;17.27;;;;;;;;;;5098832;28;20032;-67
2024/03/21 07:58:00;;;;;;;22.58;16.23;;;;;;;;;;5095309;28;20032;-72
2024/03/21 08:00:25;;;;;;;24.05;17.08;;;;;;;;;;5095770;28;20107;-70
2024/03/21 08:02:50;;;;;;;25.38;17.27;;;;;;;;;;5092793;28;20103;-75
2024/03/21 08:05:16;;;;;;;29.85;19.70;;;;;;;;;;5092630;28;20024;-64
2024/03/21 08:07:41;;;;;;;28.50;20.77;;;;;;;;;;5104974;28;20012;-66
2024/03/21 08:10:07;;;;;;;33.78;20.77;;;;;;;;;;5108376;28;20108;-65
2024/03/21 08:12:32;;;;;;;34.38;21.05;;;;;;;;;;5111866;28;20032;-69
2024/03/21 08:14:58;;;;;;;30.95;21.55;;;;;;;;;;5103877;28;20361;-65
2024/03/21 08:17:23;;;;;;;30.98;20.70;;;;;;;;;;5087621;28;20409;-64
2024/03/21 08:19:50;;;;;;;29.45;19.98;;;;;;;;;;5074646;28;20060;-66
2024/03/21 08:22:16;;;;;;;29.52;20.35;;;;;;;;;;5073866;28;20051;-67
2024/03/21 08:24:42;;;;;;;27.90;20.02;;;;;;;;;;5073862;28;20423;-65
2024/03/21 08:27:07;;;;;;;33.90;21.15;;;;;;;;;;5081335;28;20036;-65
2024/03/21 08:29:33;;;;;;;41.08;20.45;;;;;;;;;;5074419;28;20067;-63
2024/03/21 08:31:58;;;;;;;30.13;20.60;;;;;;;;;;5079510;28;20032;-63
2024/03/21 08:34:23;;;;;;;34.63;20.65;;;;;;;;;;5063200;28;20085;-66
2024/03/21 08:36:49;;;;;;;38.45;21.50;;;;;;;;;;5075140;28;20031;-63
2024/03/21 08:39:14;;;;;;;35.83;22.55;;;;;;;;;;5094434;28;20032;-63
2024/03/21 08:41:40;;;;;;;34.30;20.52;;;;;;;;;;5073532;28;20040;-62
2024/03/21 08:44:06;;;;;;;33.00;20.80;;;;;;;;;;5078660;28;20165;-66
2024/03/21 08:46:31;;;;;;;36.30;20.58;;;;;;;;;;5091596;28;20028;-64
2024/03/21 08:48:57;;;;;;;30.77;19.40;;;;;;;;;;5093490;28;20035;-63
2024/03/21 08:51:22;;;;;;;37.35;20.98;;;;;;;;;;5102753;28;20024;-65
2024/03/21 08:53:47;;;;;;;37.63;22.27;;;;;;;;;;5113882;28;20197;-64
2024/03/21 08:56:13;;;;;;;42.78;22.92;;;;;;;;;;5114647;28;20035;-67
2024/03/21 08:58:38;;;;;;;36.78;20.85;;;;;;;;;;5114165;28;20027;-63
2024/03/21 09:01:04;;;;;;;36.50;21.13;;;;;;;;;;5112086;28;20481;-65
2024/03/21 09:03:31;;;;;;;34.33;22.02;;;;;;;;;;5098293;28;20019;-63
2024/03/21 09:05:57;;;;;;;37.35;21.15;;;;;;;;;;5088155;28;20035;-63
2024/03/21 09:08:23;;;;;;;35.03;21.67;;;;;;;;;;5093506;28;20028;-65
2024/03/21 09:10:48;;;;;;;36.17;21.98;;;;;;;;;;5092032;28;20027;-65
2024/03/21 09:13:14;;;;;;;36.15;21.80;;;;;;;;;;5092403;28;20031;-66
2024/03/21 09:15:39;;;;;;;35.40;21.98;;;;;;;;;;5092862;28;20434;-65
2024/03/21 09:18:05;;;;;;;38.80;21.23;;;;;;;;;;5092104;28;20116;-66
2024/03/21 09:20:31;;;;;;;38.33;21.38;;;;;;;;;;5113623;28;20027;-68
2024/03/21 09:22:56;;;;;;;33.17;21.23;;;;;;;;;;5113144;28;20023;-68
2024/03/21 09:25:22;;;;;;;41.13;21.52;;;;;;;;;;5113500;28;20038;-67
2024/03/21 09:27:47;;;;;;;35.55;21.80;;;;;;;;;;5111397;28;20080;-61
2024/03/21 09:30:13;;;;;;;39.25;20.50;;;;;;;;;;5112890;28;20030;-63
2024/03/21 09:32:38;;;;;;;33.17;21.23;;;;;;;;;;5104361;28;20116;-65
2024/03/21 09:35:06;;;;;;;41.60;20.80;;;;;;;;;;5092485;28;20666;-66
2024/03/21 09:37:32;;;;;;;32.97;20.83;;;;;;;;;;5093073;28;20020;-66
2024/03/21 09:39:57;;;;;;;35.08;21.38;;;;;;;;;;5093250;28;20020;-67
2024/03/21 09:42:23;;;;;;;38.15;19.98;;;;;;;;;;5104555;28;20024;-65
2024/03/21 09:44:49;;;;;;;32.40;19.77;;;;;;;;;;5112952;28;20470;-65
2024/03/21 09:47:23;;;;;;;31.67;19.75;;;;;;;;;;5108369;28;20023;-63
2024/03/21 09:49:49;;;;;;;45.67;20.85;;;;;;;;;;5091197;28;20024;-64
2024/03/21 09:52:15;;;;;;;35.50;20.67;;;;;;;;;;5091204;28;20174;-64
2024/03/21 09:54:40;;;;;;;32.58;21.10;;;;;;;;;;5093410;28;20089;-65
2024/03/21 09:57:11;;;;;;;37.05;21.33;;;;;;;;;;5090791;28;20036;-66
2024/03/21 09:59:36;;;;;;;35.22;20.83;;;;;;;;;;5106217;28;20024;-68
2024/03/21 10:02:02;;;;;;;30.10;21.77;;;;;;;;;;5108273;28;20050;-67
2024/03/21 10:04:27;;;;;;;36.22;21.27;;;;;;;;;;5091095;28;20115;-68
2024/03/21 10:06:52;;;;;;;34.78;20.95;;;;;;;;;;5092231;28;20107;-69
2024/03/21 10:09:18;;;;;;;37.67;19.88;;;;;;;;;;5092121;28;20088;-65
2024/03/21 10:11:43;;;;;;;32.38;19.10;;;;;;;;;;5092436;28;20077;-68
2024/03/21 10:14:13;;;;;;;29.73;19.05;;;;;;;;;;5109192;28;20048;-69
2024/03/21 10:16:42;;;;;;;33.28;19.05;;;;;;;;;;5113027;28;20103;-69
2024/03/21 10:19:08;;;;;;;32.35;19.67;;;;;;;;;;5091764;28;20034;-67
2024/03/21 10:21:33;;;;;;;28.10;17.33;;;;;;;;;;5092795;28;20434;-66
2024/03/21 10:24:02;;;;;;;26.13;18.00;;;;;;;;;;5092741;28;20036;-70
2024/03/21 10:26:28;;;;;;;27.50;17.23;;;;;;;;;;5092479;28;20032;-70
2024/03/21 10:28:55;;;;;;;25.00;17.45;;;;;;;;;;5091180;28;20042;-65
2024/03/21 10:31:26;;;;;;;26.35;15.45;;;;;;;;;;5092058;28;20083;-64
2024/03/21 10:33:53;;;;;;;24.00;14.02;;;;;;;;;;5091232;28;20036;-67
2024/03/21 10:36:19;;;;;;;20.02;13.95;;;;;;;;;;5090971;28;20055;-67
2024/03/21 10:38:44;;;;;;;18.73;11.98;;;;;;;;;;5091204;28;20066;-66
2024/03/21 10:41:17;;;;;;;20.85;11.32;;;;;;;;;;5091100;28;20439;-63
2024/03/21 10:43:44;;;;;;;15.18;10.20;;;;;;;;;;5074863;28;20027;-63
2024/03/21 10:46:10;;;;;;;18.08;9.68;;;;;;;;;;5092191;28;20438;-63
2024/03/21 10:48:37;;;;;;;15.38;9.32;;;;;;;;;;5091627;28;20084;-72
2024/03/21 10:51:12;;;;;;;18.27;8.90;;;;;;;;;;5091846;28;20043;-72
2024/03/21 10:53:38;;;;;;;;;;;;;;;;;;5109656;28;20381;-71
2024/03/21 10:56:03;;;;;;;;;;;;;;;;;;5110747;28;19907;-71
2024/03/21 10:58:28;;;;;;;15.60;9.37;;;;;;;;;;5115808;28;20230;-71
2024/03/21 11:00:54;;;;;;;16.65;9.98;;;;;;;;;;5115230;28;20031;-65
2024/03/21 11:03:19;;;;;;;18.08;9.88;;;;;;;;;;5103130;28;20155;-71
2024/03/21 11:05:55;;;;;;;12.43;8.75;;;;;;;;;;5094868;28;20078;-71
2024/03/21 11:08:20;;;;;;;;;;;;;;;;;;5095345;28;20055;-70
2024/03/21 11:10:46;;;;;;;16.17;7.47;;;;;;;;;;5108227;28;20325;-73
2024/03/21 11:13:12;;;;;;;9.77;6.88;;;;;;;;;;5114829;28;20053;-67
2024/03/21 11:15:37;;;;;;;9.95;6.30;;;;;;;;;;5115966;28;20016;-66
2024/03/21 11:18:05;;;;;;;9.15;6.30;;;;;;;;;;5103911;28;20117;-72
2024/03/21 11:20:30;;;;;;;11.52;6.40;;;;;;;;;;5111902;28;20026;-66
2024/03/21 11:22:56;;;;;;;11.57;6.88;;;;;;;;;;5098217;28;20024;-65
2024/03/21 11:25:22;;;;;;;9.40;6.00;;;;;;;;;;5102143;28;20135;-66
2024/03/21 11:27:48;;;;;;;9.23;5.75;;;;;;;;;;5094978;28;20469;-67
2024/03/21 11:30:14;;;;;;;8.40;5.38;;;;;;;;;;5090439;28;20038;-66
2024/03/21 11:32:39;;;;;;;10.50;5.32;;;;;;;;;;5063913;28;20465;-70
2024/03/21 11:35:04;;;;;;;7.35;4.40;;;;;;;;;;5064814;28;20070;-71
2024/03/21 11:37:31;;;;;;;5.38;3.80;;;;;;;;;;5094497;28;20081;-69
2024/03/21 11:39:56;;;;;;;6.10;4.40;;;;;;;;;;5095267;28;20016;-67
2024/03/21 11:42:24;;;;;;;6.20;3.83;;;;;;;;;;5094724;28;20050;-67
2024/03/21 11:44:50;;;;;;;6.43;3.33;;;;;;;;;;5114744;28;20066;-71
2024/03/21 11:47:16;;;;;;;4.95;2.85;;;;;;;;;;5111239;28;20028;-66
2024/03/21 11:49:52;;;;;;;9.95;3.55;;;;;;;;;;5094337;28;20024;-67
2024/03/21 11:52:18;;;;;;;5.68;2.95;;;;;;;;;;5095632;28;20095;-65
2024/03/21 11:54:44;;;;;;;8.77;3.47;;;;;;;;;;5094093;28;20031;-69
2024/03/21 11:57:13;;;;;;;8.18;4.82;;;;;;;;;;5095174;28;20050;-69
2024/03/21 11:59:41;;;;;;;9.52;4.53;;;;;;;;;;5113728;28;20028;-70
2024/03/21 12:02:11;;;;;;;12.63;5.13;;;;;;;;;;5107202;28;20052;-69
2024/03/21 12:04:36;;;;;;;11.40;5.35;;;;;;;;;;5094365;28;20404;-68
2024/03/21 12:07:01;;;;;;;12.90;5.57;;;;;;;;;;5093999;28;20020;-69
2024/03/21 12:09:27;;;;;;;8.93;5.80;;;;;;;;;;5094690;28;20358;-69
2024/03/21 12:11:52;;;;;;;10.63;6.05;;;;;;;;;;5094895;28;20032;-69
2024/03/21 12:14:17;;;;;;;15.93;6.25;;;;;;;;;;5094621;28;20046;-69
2024/03/21 12:16:43;;;;;;;14.68;7.10;;;;;;;;;;5094838;28;20038;-68
2024/03/21 12:19:08;;;;;;;14.70;7.18;;;;;;;;;;5093968;28;20873;-70
2024/03/21 12:21:34;;;;;;;14.63;7.63;;;;;;;;;;5094855;28;20074;-69
2024/03/21 12:23:59;;;;;;;16.20;8.10;;;;;;;;;;5094485;28;20412;-69
2024/03/21 12:26:26;;;;;;;15.43;8.25;;;;;;;;;;5094904;28;20027;-69
2024/03/21 12:28:52;;;;;;;13.60;8.45;;;;;;;;;;5095045;28;20027;-68
2024/03/21 12:31:17;;;;;;;15.52;9.18;;;;;;;;;;5095043;28;20461;-68
2024/03/21 12:33:44;;;;;;;19.00;9.00;;;;;;;;;;5093678;28;20024;-68
2024/03/21 12:36:11;;;;;;;14.85;8.80;;;;;;;;;;5094502;28;20346;-69
2024/03/21 12:38:36;;;;;;;15.45;8.15;;;;;;;;;;5094501;28;20035;-68
2024/03/21 12:41:03;;;;;;;15.68;8.32;;;;;;;;;;5094722;28;20330;-68
2024/03/21 12:43:28;;;;;;;9.60;6.88;;;;;;;;;;5094150;28;20048;-67
2024/03/21 12:45:55;;;;;;;23.95;8.60;;;;;;;;;;5093345;28;20375;-68
2024/03/21 12:48:23;;;;;;;14.73;7.65;;;;;;;;;;5094195;28;20016;-66
2024/03/21 12:50:48;;;;;;;15.52;7.50;;;;;;;;;;5093204;28;20024;-68
2024/03/21 12:53:18;;;;;;;11.85;6.88;;;;;;;;;;5094357;28;20461;-68
2024/03/21 12:55:44;;;;;;;9.45;6.93;;;;;;;;;;5093914;28;20119;-68
2024/03/21 12:58:10;;;;;;;13.10;7.35;;;;;;;;;;5094469;28;20107;-69
2024/03/21 13:00:36;;;;;;;15.02;6.72;;;;;;;;;;5093052;28;20024;-70
2024/03/21 13:03:01;;;;;;;11.70;7.20;;;;;;;;;;5092371;28;20085;-69
2024/03/21 13:05:27;;;;;;;13.50;7.25;;;;;;;;;;5094251;28;20319;-70
2024/03/21 13:07:52;;;;;;;13.60;7.10;;;;;;;;;;5092834;28;20086;-67
2024/03/21 13:10:18;;;;;;;13.38;6.97;;;;;;;;;;5094293;28;20020;-68
2024/03/21 13:12:44;;;;;;;15.73;7.07;;;;;;;;;;5093626;28;20111;-69
2024/03/21 13:15:09;;;;;;;13.00;7.05;;;;;;;;;;5093576;28;20106;-71
2024/03/21 13:17:34;;;;;;;18.20;7.03;;;;;;;;;;5093161;28;20027;-68
2024/03/21 13:20:00;;;;;;;14.68;6.82;;;;;;;;;;5092934;28;20069;-69
2024/03/21 13:22:26;;;;;;;12.80;7.10;;;;;;;;;;5093648;28;20020;-68
2024/03/21 13:24:53;;;;;;;11.80;7.15;;;;;;;;;;5093439;28;20142;-69
2024/03/21 13:27:26;;;;;;;11.80;6.70;;;;;;;;;;5093623;28;20445;-66
2024/03/21 13:29:52;;;;;;;12.15;7.00;;;;;;;;;;5093235;28;20128;-69
2024/03/21 13:32:18;;;;;;;12.30;6.50;;;;;;;;;;5093003;28;20067;-70
2024/03/21 13:34:45;;;;;;;12.95;6.80;;;;;;;;;;5092938;28;20450;-69
2024/03/21 13:37:12;;;;;;;12.93;7.38;;;;;;;;;;5093381;28;20078;-68
2024/03/21 13:39:37;;;;;;;12.48;6.30;;;;;;;;;;5092277;28;20514;-68
2024/03/21 13:42:04;;;;;;;12.93;6.95;;;;;;;;;;5093087;28;20127;-68
2024/03/21 13:44:31;;;;;;;20.17;6.50;;;;;;;;;;5092702;28;20024;-69
2024/03/21 13:46:57;;;;;;;11.20;6.40;;;;;;;;;;5093013;28;20016;-68
2024/03/21 13:49:22;;;;;;;11.40;6.13;;;;;;;;;;5093268;28;20023;-68
2024/03/21 13:51:47;;;;;;;11.98;6.15;;;;;;;;;;5091800;28;20343;-69
2024/03/21 13:54:15;;;;;;;13.60;6.47;;;;;;;;;;5091918;28;20138;-69
2024/03/21 13:56:40;;;;;;;14.88;6.60;;;;;;;;;;5092977;28;20082;-67
2024/03/21 13:59:06;;;;;;;13.73;7.18;;;;;;;;;;5092511;28;20438;-70
2024/03/21 14:01:31;;;;;;;15.43;6.20;;;;;;;;;;5092469;28;20046;-68
2024/03/21 14:03:56;;;;;;;11.38;6.10;;;;;;;;;;5092738;28;20028;-69
2024/03/21 14:06:22;;;;;;;9.88;5.53;;;;;;;;;;5092784;28;20047;-67
2024/03/21 14:08:48;;;;;;;10.77;6.25;;;;;;;;;;5092692;28;20400;-69
2024/03/21 14:11:14;;;;;;;9.73;6.18;;;;;;;;;;5092590;28;20075;-69
2024/03/21 14:13:46;;;;;;;9.88;5.63;;;;;;;;;;5092957;28;20832;-69
2024/03/21 14:16:11;;;;;;;15.00;5.75;;;;;;;;;;5093269;28;20020;-70
2024/03/21 14:18:37;;;;;;;12.82;6.10;;;;;;;;;;5092415;28;20095;-68
2024/03/21 14:21:03;;;;;;;11.07;5.60;;;;;;;;;;5091895;28;20016;-69